Time;durP1;ratioP1;P1;durP2;ratioP2;P2;SDS_P1;SDS_P2;PMS_P1;PMS_P2;Temp;Humidity;BMP_temperature;BMP_pressure;BME280_temperature;BME280_humidity;BME280_pressure;Samples;Min_cycle;Max_cycle;Signal;HPM_P1;HPM_P2
2023/03/05 00:01:41;;;;;;;51.00;22.50;;;;;;;1.22;80.45;100525.02;109415;1245;70406;-77
2023/03/05 00:04:14;;;;;;;53.70;23.40;;;;;;;1.24;80.16;100520.31;109333;1244;72560;-78
2023/03/05 00:06:43;;;;;;;53.90;23.30;;;;;;;1.26;80.18;100518.19;109507;1245;59618;-79
2023/03/05 00:09:12;;;;;;;52.90;23.50;;;;;;;1.24;80.83;100517.39;109392;1243;61777;-79
2023/03/05 00:11:41;;;;;;;56.20;22.50;;;;;;;1.29;79.57;100514.27;109356;1243;73147;-82
2023/03/05 00:14:10;;;;;;;53.80;23.90;;;;;;;1.33;79.99;100511.77;109260;1244;73264;-80
2023/03/05 00:16:39;;;;;;;51.80;23.50;;;;;;;1.36;79.67;100509.74;109170;1244;71068;-81
2023/03/05 00:19:10;;;;;;;58.50;25.20;;;;;;;1.37;80.06;100509.55;109325;1244;73357;-80
2023/03/05 00:21:41;;;;;;;53.10;24.90;;;;;;;1.41;80.13;100510.78;109109;1247;59738;-75
2023/03/05 00:24:15;;;;;;;53.20;23.70;;;;;;;1.44;80.16;100512.54;109130;1244;60060;-77
2023/03/05 00:26:45;;;;;;;57.90;25.10;;;;;;;1.47;79.73;100506.41;109267;1244;74090;-80
2023/03/05 00:29:17;;;;;;;54.60;24.40;;;;;;;1.51;79.15;100505.73;109134;1244;72885;-80
2023/03/05 00:31:47;;;;;;;48.50;23.50;;;;;;;1.54;77.78;100502.70;109177;1244;60199;-81
2023/03/05 00:34:18;;;;;;;53.70;23.70;;;;;;;1.56;77.51;100499.55;109197;1245;73070;-81
2023/03/05 00:36:51;;;;;;;49.40;23.10;;;;;;;1.58;77.55;100503.06;109063;1248;61541;-77
2023/03/05 00:39:21;;;;;;;51.00;22.50;;;;;;;1.59;77.17;100505.95;109217;1244;61123;-77
2023/03/05 00:41:50;;;;;;;54.40;22.60;;;;;;;1.65;76.74;100505.73;109173;1244;71783;-82
2023/03/05 00:44:19;;;;;;;47.50;23.10;;;;;;;1.68;76.54;100507.64;109243;1244;72806;-79
2023/03/05 00:46:49;;;;;;;51.10;22.50;;;;;;;1.68;76.50;100500.96;109274;1245;70710;-78
2023/03/05 00:49:18;;;;;;;52.50;23.70;;;;;;;1.68;77.79;100502.67;109312;1243;73692;-78
2023/03/05 00:51:46;;;;;;;53.00;22.20;;;;;;;1.73;77.08;100503.00;109169;1248;60167;-79
2023/03/05 00:54:15;;;;;;;55.10;24.00;;;;;;;1.75;77.25;100501.39;109237;1243;57496;-78
2023/03/05 00:56:45;;;;;;;55.20;23.50;;;;;;;1.75;77.61;100500.16;109247;1244;71605;-79
2023/03/05 00:59:14;;;;;;;53.50;22.40;;;;;;;1.78;76.95;100500.56;109292;1243;71752;-77
2023/03/05 01:01:43;;;;;;;50.00;21.80;;;;;;;1.74;76.96;100491.98;109419;1244;70183;-77
2023/03/05 01:04:12;;;;;;;48.60;22.00;;;;;;;1.79;76.58;100497.76;109388;1244;74010;-78
2023/03/05 01:06:45;;;;;;;60.10;23.20;;;;;;;1.81;76.03;100494.29;109510;1245;62568;-77
2023/03/05 01:09:14;;;;;;;55.20;21.70;;;;;;;1.80;76.79;100495.17;109526;1244;57683;-77
2023/03/05 01:11:43;;;;;;;54.60;22.10;;;;;;;1.84;77.11;100496.02;109366;1244;70833;-78
2023/03/05 01:14:13;;;;;;;55.20;23.10;;;;;;;1.83;77.97;100494.69;109503;1244;60858;-79
2023/03/05 01:16:42;;;;;;;52.40;23.60;;;;;;;1.83;77.83;100493.49;109404;1245;70525;-78
2023/03/05 01:19:12;;;;;;;49.30;24.10;;;;;;;1.81;77.62;100496.86;109513;1244;74118;-82
2023/03/05 01:21:41;;;;;;;50.80;23.10;;;;;;;1.79;77.49;100494.70;109380;1243;59274;-77
2023/03/05 01:24:10;;;;;;;45.50;21.50;;;;;;;1.76;77.62;100500.13;109519;1243;57268;-79
2023/03/05 01:26:39;;;;;;;52.10;23.90;;;;;;;1.72;75.91;100492.90;109552;1244;72240;-76
2023/03/05 01:29:08;;;;;;;49.40;22.20;;;;;;;1.62;76.43;100491.75;109634;1243;70248;-77
2023/03/05 01:31:37;;;;;;;54.70;22.60;;;;;;;1.54;76.40;100492.91;109572;1243;69569;-76
2023/03/05 01:34:06;;;;;;;48.20;21.70;;;;;;;1.48;76.16;100491.96;109571;1244;72522;-80
2023/03/05 01:36:35;;;;;;;51.60;22.50;;;;;;;1.40;76.33;100487.45;109499;1244;60483;-70
2023/03/05 01:39:04;;;;;;;50.40;22.30;;;;;;;1.37;76.86;100490.15;109488;1243;59671;-82
2023/03/05 01:41:34;;;;;;;54.10;22.20;;;;;;;1.35;78.00;100495.55;109587;1247;71563;-81
2023/03/05 01:44:03;;;;;;;50.10;22.50;;;;;;;1.34;77.22;100493.67;109668;1244;71306;-82
2023/03/05 01:46:37;;;;;;;54.60;23.90;;;;;;;1.33;76.42;100498.52;109523;1248;70074;-82
2023/03/05 01:49:29;;;;;;;51.90;21.50;;;;;;;1.26;77.73;100495.02;109603;1244;71715;-82
2023/03/05 01:52:22;;;;;;;51.40;22.60;;;;;;;1.21;77.04;100494.85;109694;1246;58078;-81
2023/03/05 01:54:58;;;;;;;51.90;22.30;;;;;;;1.13;77.15;100494.31;109589;1244;61196;-76
2023/03/05 01:57:48;;;;;;;48.30;22.20;;;;;;;1.05;78.29;100493.59;109622;1244;71204;-80
2023/03/05 02:00:47;;;;;;;50.80;21.60;;;;;;;0.96;77.61;100497.48;109487;1243;72258;-80
2023/03/05 02:03:16;;;;;;;50.50;21.80;;;;;;;0.87;77.35;100500.06;109751;1243;68780;-76
2023/03/05 02:05:45;;;;;;;49.80;22.30;;;;;;;0.76;80.21;100503.85;109640;1244;71199;-73
2023/03/05 02:08:18;;;;;;;49.10;23.10;;;;;;;0.71;81.60;100501.31;109648;1244;59734;-81
2023/03/05 02:10:51;;;;;;;53.90;22.30;;;;;;;0.69;81.65;100506.86;109487;1244;60383;-75
2023/03/05 02:13:30;;;;;;;47.60;20.60;;;;;;;0.66;82.40;100506.60;109396;1244;72983;-72
2023/03/05 02:16:00;;;;;;;48.10;21.20;;;;;;;0.62;83.05;100514.63;109313;1244;70320;-74
2023/03/05 02:18:29;;;;;;;53.90;22.10;;;;;;;0.59;82.77;100514.05;109391;1244;69244;-72
2023/03/05 02:21:07;;;;;;;47.80;21.40;;;;;;;0.52;83.54;100516.01;109354;1244;71772;-74
2023/03/05 02:23:38;;;;;;;52.90;21.60;;;;;;;0.47;83.82;100515.84;109344;1247;62109;-76
2023/03/05 02:26:10;;;;;;;54.60;22.60;;;;;;;0.40;83.88;100515.73;109364;1243;61720;-73
2023/03/05 02:28:46;;;;;;;49.70;22.40;;;;;;;0.34;84.53;100520.76;109451;1243;73677;-78
2023/03/05 02:31:22;;;;;;;51.20;22.50;;;;;;;0.29;84.90;100525.19;109441;1245;71666;-81
2023/03/05 02:33:52;;;;;;;49.10;22.00;;;;;;;0.24;85.39;100526.02;109366;1244;71343;-80
2023/03/05 02:36:22;;;;;;;51.80;21.80;;;;;;;0.16;85.73;100525.24;109397;1244;74230;-75
2023/03/05 02:38:52;;;;;;;48.90;21.10;;;;;;;0.15;85.49;100525.12;109337;1247;59183;-77
2023/03/05 02:41:23;;;;;;;46.00;22.20;;;;;;;0.10;86.25;100527.50;109469;1244;58872;-78
2023/03/05 02:43:52;;;;;;;55.40;24.60;;;;;;;0.02;86.68;100522.78;109464;1244;71697;-76
2023/03/05 02:46:22;;;;;;;53.20;21.80;;;;;;;-0.00;86.80;100529.55;109528;1244;70402;-78
2023/03/05 02:48:50;;;;;;;58.40;24.30;;;;;;;-0.07;86.47;100534.37;109450;1243;70499;-77
2023/03/05 02:51:19;;;;;;;50.80;22.60;;;;;;;-0.15;87.05;100537.34;109468;1247;72456;-78
2023/03/05 02:53:48;;;;;;;55.90;24.10;;;;;;;-0.23;87.36;100534.69;109396;1245;62086;-77
2023/03/05 02:56:18;;;;;;;53.50;23.50;;;;;;;-0.31;88.50;100536.13;109385;1243;58997;-75
2023/03/05 02:58:46;;;;;;;49.60;22.00;;;;;;;-0.38;89.68;100534.29;109389;1244;73462;-78
2023/03/05 03:01:15;;;;;;;51.50;22.10;;;;;;;-0.41;88.92;100539.68;109428;1244;73340;-78
2023/03/05 03:03:45;;;;;;;49.90;21.70;;;;;;;-0.48;89.28;100544.34;109502;1244;70440;-79
2023/03/05 03:06:13;;;;;;;54.40;23.20;;;;;;;-0.54;89.94;100543.14;109481;1243;73506;-71
2023/03/05 03:08:42;;;;;;;44.90;20.60;;;;;;;-0.59;89.45;100540.89;109523;1245;60958;-72
2023/03/05 03:13:01;;;;;;;54.00;23.40;;;;;;;-0.63;89.95;100541.88;104430;1280;599528;-81
2023/03/05 03:15:31;;;;;;;51.20;21.20;;;;;;;-0.72;89.99;100541.98;106052;1264;59063;-77
2023/03/05 03:18:00;;;;;;;48.60;21.80;;;;;;;-0.77;89.92;100538.35;106906;1256;60379;-77
2023/03/05 03:20:28;;;;;;;48.40;21.80;;;;;;;-0.82;89.93;100538.63;106850;1259;72347;-76
2023/03/05 03:22:57;;;;;;;53.60;24.60;;;;;;;-0.88;90.24;100535.23;106807;1262;70820;-81
2023/03/05 03:25:26;;;;;;;50.10;22.50;;;;;;;-0.92;90.35;100537.73;106880;1251;67047;-82
2023/03/05 03:27:55;;;;;;;53.30;23.10;;;;;;;-1.01;90.83;100526.02;106614;1250;71881;-82
2023/03/05 03:30:24;;;;;;;55.90;23.40;;;;;;;-0.99;90.35;100538.80;106918;1253;59776;-81
2023/03/05 03:32:53;;;;;;;45.60;21.70;;;;;;;-1.04;90.87;100540.98;106855;1257;60001;-85
2023/03/05 03:35:21;;;;;;;55.60;22.50;;;;;;;-1.07;91.12;100541.57;106847;1259;71601;-81
2023/03/05 03:37:50;;;;;;;47.10;21.70;;;;;;;-1.13;91.73;100541.39;106856;1248;71484;-84
2023/03/05 03:40:19;;;;;;;50.50;22.40;;;;;;;-1.15;92.45;100539.55;106884;1253;67917;-79
2023/03/05 03:42:53;;;;;;;48.90;23.30;;;;;;;-1.12;92.67;100543.41;106923;1260;72008;-84
2023/03/05 03:45:22;;;;;;;48.30;23.00;;;;;;;-1.11;92.73;100541.84;106887;1251;58829;-80
2023/03/05 03:47:51;;;;;;;55.70;23.30;;;;;;;-1.11;92.93;100546.29;106885;1251;60359;-82
2023/03/05 03:50:20;;;;;;;57.20;21.80;;;;;;;-1.11;92.71;100552.61;106821;1248;72488;-80
2023/03/05 03:52:50;;;;;;;49.90;22.60;;;;;;;-1.11;92.59;100553.47;106722;1251;68684;-82
2023/03/05 03:55:18;;;;;;;60.20;22.50;;;;;;;-1.11;92.72;100556.56;106858;1252;69943;-81
2023/03/05 03:57:47;;;;;;;51.20;22.70;;;;;;;-1.12;92.85;100553.83;106810;1249;72853;-81
2023/03/05 04:00:17;;;;;;;52.00;22.20;;;;;;;-1.11;92.63;100555.01;106786;1252;59672;-79
2023/03/05 04:02:46;;;;;;;51.80;23.70;;;;;;;-1.11;92.44;100550.73;106843;1256;61146;-80
2023/03/05 04:05:15;;;;;;;52.20;22.60;;;;;;;-1.09;92.84;100552.73;106760;1259;71696;-81
2023/03/05 04:07:44;;;;;;;59.00;23.00;;;;;;;-1.07;92.57;100554.39;106960;1248;70440;-83
2023/03/05 04:10:13;;;;;;;54.50;23.80;;;;;;;-1.04;92.96;100560.96;107007;1255;68583;-81
2023/03/05 04:12:42;;;;;;;50.30;22.60;;;;;;;-1.00;91.63;100560.53;107120;1249;75005;-80
2023/03/05 04:15:11;;;;;;;61.20;24.90;;;;;;;-0.96;92.34;100561.11;107083;1256;62230;-81
2023/03/05 04:17:40;;;;;;;55.40;23.10;;;;;;;-0.94;92.67;100565.48;107089;1249;60246;-80
2023/03/05 04:20:10;;;;;;;55.90;24.80;;;;;;;-0.92;92.28;100567.46;107065;1249;71301;-81
2023/03/05 04:22:39;;;;;;;59.40;24.30;;;;;;;-0.89;92.83;100572.20;107041;1257;70704;-80
2023/03/05 04:25:09;;;;;;;62.20;24.40;;;;;;;-0.87;92.76;100570.42;106982;1249;68945;-80
2023/03/05 04:27:39;;;;;;;62.10;25.60;;;;;;;-0.83;91.92;100576.64;106986;1257;73746;-80
2023/03/05 04:30:13;;;;;;;65.70;26.70;;;;;;;-0.77;92.09;100580.58;107010;1246;61930;-81
2023/03/05 04:32:42;;;;;;;62.00;26.30;;;;;;;-0.73;92.55;100581.14;107071;1248;60421;-79
2023/03/05 04:35:11;;;;;;;61.20;24.90;;;;;;;-0.69;92.48;100583.08;106897;1245;70591;-82
2023/03/05 04:37:40;;;;;;;55.00;24.50;;;;;;;-0.66;92.61;100589.36;107061;1256;70353;-82
2023/03/05 04:40:10;;;;;;;57.50;24.00;;;;;;;-0.59;92.83;100592.89;107184;1247;67896;-81
2023/03/05 04:42:40;;;;;;;58.70;25.40;;;;;;;-0.51;92.44;100596.13;107138;1248;72796;-80
2023/03/05 04:45:09;;;;;;;56.80;24.60;;;;;;;-0.43;92.27;100596.03;107077;1255;63092;-81
2023/03/05 04:47:38;;;;;;;62.90;24.80;;;;;;;-0.32;91.83;100597.60;107098;1249;59386;-82
2023/03/05 04:50:09;;;;;;;83.10;42.80;;;;;;;-0.23;91.50;100594.76;107048;1257;72028;-79
2023/03/05 04:52:44;;;;;;;55.90;25.60;;;;;;;-0.17;91.41;100598.86;107101;1248;70387;-82
2023/03/05 04:55:15;;;;;;;57.60;25.20;;;;;;;-0.11;91.21;100601.44;107143;1244;70495;-79
2023/03/05 04:57:44;;;;;;;61.00;27.60;;;;;;;-0.05;91.02;100607.77;107183;1257;71294;-80
2023/03/05 05:00:16;;;;;;;63.80;27.30;;;;;;;0.01;90.30;100609.45;107163;1248;59781;-82
2023/03/05 05:02:48;;;;;;;72.00;34.00;;;;;;;0.01;90.20;100609.64;107245;1247;58935;-85
2023/03/05 05:05:21;;;;;;;62.90;25.90;;;;;;;0.01;90.43;100604.17;107177;1244;73081;-80
2023/03/05 05:07:56;;;;;;;58.40;26.00;;;;;;;0.03;90.58;100611.96;107210;1248;72690;-81
2023/03/05 05:10:26;;;;;;;55.00;25.40;;;;;;;0.08;90.39;100613.34;107025;1257;71346;-80
2023/03/05 05:12:54;;;;;;;55.20;24.70;;;;;;;0.17;90.12;100612.73;106988;1250;74162;-82
2023/03/05 05:15:23;;;;;;;63.20;26.60;;;;;;;0.22;89.85;100619.27;107240;1248;59109;-82
2023/03/05 05:17:52;;;;;;;55.90;25.90;;;;;;;0.35;89.22;100626.58;107178;1245;59662;-80
2023/03/05 05:20:21;;;;;;;67.00;27.60;;;;;;;0.35;88.43;100631.88;107203;1248;70021;-83
2023/03/05 05:22:50;;;;;;;52.10;22.90;;;;;;;0.34;88.46;100636.20;107185;1257;70256;-83
2023/03/05 05:25:19;;;;;;;51.30;20.70;;;;;;;0.44;87.42;100638.60;107193;1254;70481;-81
2023/03/05 05:27:47;;;;;;;51.90;22.20;;;;;;;0.50;87.02;100637.55;107135;1248;73193;-80
2023/03/05 05:30:16;;;;;;;55.30;21.40;;;;;;;0.49;86.70;100634.66;107156;1256;61673;-80
2023/03/05 05:32:45;;;;;;;53.70;22.40;;;;;;;0.47;85.44;100631.99;107241;1251;59980;-81
2023/03/05 05:35:14;;;;;;;53.10;22.50;;;;;;;0.52;86.22;100628.77;107156;1248;70211;-80
2023/03/05 05:37:43;;;;;;;50.90;19.80;;;;;;;0.61;85.66;100631.89;107249;1244;70804;-82
2023/03/05 05:40:12;;;;;;;42.30;17.90;;;;;;;0.58;85.04;100631.14;107219;1256;70647;-83
2023/03/05 05:42:41;;;;;;;53.10;21.60;;;;;;;0.62;85.07;100635.46;107264;1249;72591;-83
2023/03/05 05:45:11;;;;;;;57.60;22.20;;;;;;;0.67;85.32;100636.16;107252;1249;61250;-85
2023/03/05 05:47:40;;;;;;;39.90;16.90;;;;;;;0.78;84.84;100637.33;107310;1245;62693;-85
2023/03/05 05:50:11;;;;;;;37.80;13.30;;;;;;;0.88;84.09;100638.04;107250;1257;73118;-83
2023/03/05 05:52:40;;;;;;;41.00;17.70;;;;;;;0.83;84.29;100640.80;107239;1245;72702;-82
2023/03/05 05:55:10;;;;;;;40.80;18.20;;;;;;;0.74;84.43;100644.85;107161;1257;70046;-81
2023/03/05 05:57:38;;;;;;;44.20;18.80;;;;;;;0.68;84.18;100639.04;107203;1257;73973;-81
2023/03/05 06:00:11;;;;;;;33.10;16.00;;;;;;;0.68;84.00;100638.01;107221;1257;62160;-82
2023/03/05 06:02:42;;;;;;;41.80;17.30;;;;;;;0.75;83.97;100642.08;107229;1248;61241;-84
2023/03/05 06:05:14;;;;;;;53.30;20.60;;;;;;;0.74;84.27;100641.59;107118;1249;74299;-82
2023/03/05 06:07:43;;;;;;;52.80;21.40;;;;;;;0.76;84.82;100643.76;107221;1245;71837;-83
2023/03/05 06:10:12;;;;;;;51.60;21.30;;;;;;;0.81;84.54;100639.80;107333;1251;69531;-82
2023/03/05 06:12:41;;;;;;;57.40;24.70;;;;;;;0.95;84.39;100640.38;107259;1245;74991;-82
2023/03/05 06:15:10;;;;;;;59.10;24.30;;;;;;;1.04;83.93;100640.92;107248;1254;60248;-83
2023/03/05 06:17:39;;;;;;;56.00;23.60;;;;;;;1.08;83.71;100647.13;107276;1257;61205;-82
2023/03/05 06:20:09;;;;;;;42.80;17.50;;;;;;;1.29;82.49;100655.49;107031;1257;72267;-82
2023/03/05 06:22:38;;;;;;;36.70;17.40;;;;;;;1.26;81.90;100659.53;107247;1244;71754;-82
2023/03/05 06:25:08;;;;;;;45.70;19.00;;;;;;;1.21;82.47;100658.35;107146;1256;68479;-81
2023/03/05 06:27:38;;;;;;;48.90;20.50;;;;;;;1.13;82.84;100652.13;107266;1249;74190;-86
2023/03/05 06:30:10;;;;;;;48.20;21.20;;;;;;;1.15;82.87;100652.57;107199;1248;62051;-82
2023/03/05 06:32:39;;;;;;;51.90;21.80;;;;;;;1.28;82.79;100654.66;107058;1245;61021;-82
2023/03/05 06:35:08;;;;;;;50.10;20.80;;;;;;;1.39;82.17;100648.10;107130;1248;73122;-85
2023/03/05 06:37:37;;;;;;;61.90;20.10;;;;;;;1.54;82.21;100649.13;107188;1257;72078;-85
2023/03/05 06:40:07;;;;;;;55.60;21.20;;;;;;;1.60;81.83;100650.63;107203;1244;70821;-84
2023/03/05 06:42:36;;;;;;;35.40;16.80;;;;;;;1.74;81.74;100650.64;107259;1248;72254;-83
2023/03/05 06:45:06;;;;;;;30.60;13.30;;;;;;;1.87;78.40;100654.63;107271;1244;59655;-81
2023/03/05 06:47:35;;;;;;;19.30;8.40;;;;;;;1.97;77.34;100655.28;107295;1248;60445;-84
2023/03/05 06:50:05;;;;;;;11.80;5.60;;;;;;;2.06;76.92;100658.52;107182;1248;70707;-84
2023/03/05 06:52:34;;;;;;;13.40;6.40;;;;;;;2.07;68.54;100657.64;107211;1248;70329;-82
2023/03/05 06:55:03;;;;;;;12.10;4.50;;;;;;;2.16;64.85;100655.91;107136;1248;69667;-84
2023/03/05 06:57:33;;;;;;;8.30;3.60;;;;;;;2.34;67.21;100658.67;107231;1245;74179;-82
2023/03/05 07:00:09;;;;;;;6.50;3.40;;;;;;;2.47;68.10;100652.33;107127;1249;60831;-82
2023/03/05 07:02:39;;;;;;;8.10;3.90;;;;;;;2.57;66.80;100656.89;107405;1255;58929;-84
2023/03/05 07:05:09;;;;;;;10.50;3.90;;;;;;;2.70;67.82;100664.11;107185;1257;71024;-83
2023/03/05 07:07:38;;;;;;;4.70;2.50;;;;;;;2.79;66.84;100667.35;107376;1245;71394;-84
2023/03/05 07:10:08;;;;;;;5.10;2.30;;;;;;;2.77;63.77;100668.48;107260;1245;70864;-84
2023/03/05 07:12:37;;;;;;;4.60;2.20;;;;;;;2.74;60.03;100672.22;107541;1248;75750;-83
2023/03/05 07:15:08;;;;;;;9.40;5.00;;;;;;;2.80;62.05;100669.05;107695;1249;59154;-82
2023/03/05 07:17:36;;;;;;;5.50;2.20;;;;;;;2.86;61.94;100671.88;107658;1256;61235;-81
2023/03/05 07:20:07;;;;;;;26.20;13.00;;;;;;;2.93;60.96;100670.40;107612;1257;70812;-82
2023/03/05 07:22:37;;;;;;;29.00;13.80;;;;;;;3.04;67.55;100675.26;107938;1244;71505;-81
2023/03/05 07:25:07;;;;;;;31.20;15.20;;;;;;;2.90;69.78;100679.81;107880;1248;68699;-83
2023/03/05 07:27:37;;;;;;;32.10;14.70;;;;;;;2.80;71.48;100682.11;107386;1251;71658;-83
2023/03/05 07:30:08;;;;;;;34.00;15.50;;;;;;;2.70;71.47;100679.23;107210;1251;63338;-84
2023/03/05 07:32:36;;;;;;;32.90;14.40;;;;;;;2.62;72.23;100675.24;107275;1248;62538;-83
2023/03/05 07:35:07;;;;;;;31.50;13.70;;;;;;;2.64;72.58;100670.86;107300;1247;72132;-83
2023/03/05 07:37:36;;;;;;;29.40;13.80;;;;;;;2.63;72.14;100678.11;107006;1257;72874;-81
2023/03/05 07:40:06;;;;;;;32.70;13.80;;;;;;;2.77;70.86;100679.80;107173;1247;70781;-80
2023/03/05 07:42:35;;;;;;;22.00;10.00;;;;;;;2.80;69.97;100684.68;107186;1247;72206;-82
2023/03/05 07:45:10;;;;;;;19.20;9.90;;;;;;;2.89;68.27;100681.55;107146;1247;59124;-83
2023/03/05 07:47:39;;;;;;;19.60;9.30;;;;;;;2.98;65.83;100679.30;107137;1248;60418;-83
2023/03/05 07:50:10;;;;;;;24.80;11.20;;;;;;;2.99;66.52;100679.09;107177;1248;74082;-84
2023/03/05 07:52:39;;;;;;;21.80;11.30;;;;;;;2.92;66.67;100679.89;107256;1247;71883;-82
2023/03/05 07:55:09;;;;;;;21.40;10.10;;;;;;;2.79;66.55;100682.98;107384;1244;70844;-81
2023/03/05 07:57:38;;;;;;;16.90;8.60;;;;;;;2.96;63.94;100687.83;107428;1248;74518;-85
2023/03/05 08:00:08;;;;;;;20.60;9.50;;;;;;;2.97;62.94;100684.87;107180;1245;60779;-82
2023/03/05 08:02:40;;;;;;;21.40;8.70;;;;;;;2.96;64.57;100688.69;107523;1245;59130;-85
2023/03/05 08:05:09;;;;;;;18.30;8.00;;;;;;;3.09;61.89;100684.52;107584;1244;74178;-85
2023/03/05 08:07:38;;;;;;;16.60;7.40;;;;;;;3.11;61.32;100682.20;109233;1241;70988;-82
2023/03/05 08:10:09;;;;;;;12.90;6.10;;;;;;;3.16;61.01;100683.52;109262;1237;69772;-82
2023/03/05 08:12:38;;;;;;;19.20;7.90;;;;;;;3.13;60.42;100677.11;109073;1238;63055;-85
2023/03/05 08:15:08;;;;;;;16.00;8.00;;;;;;;3.07;59.79;100685.30;108101;1238;58846;-85
2023/03/05 08:17:37;;;;;;;7.70;3.20;;;;;;;3.19;59.84;100685.66;108101;1237;60337;-84
2023/03/05 08:20:09;;;;;;;6.40;3.10;;;;;;;3.24;56.24;100685.09;107785;1243;73866;-84
2023/03/05 08:22:38;;;;;;;8.70;2.70;;;;;;;3.24;54.30;100680.65;107943;1242;62257;-85
2023/03/05 08:25:09;;;;;;;5.20;3.10;;;;;;;3.18;51.19;100674.17;108108;1240;60814;-86
2023/03/05 08:27:41;;;;;;;4.90;2.90;;;;;;;3.15;49.50;100668.06;108007;1239;63227;-86
2023/03/05 08:30:25;;;;;;;6.90;2.00;;;;;;;3.09;48.26;100673.17;108065;1239;60360;-84
2023/03/05 08:32:55;;;;;;;4.50;2.10;;;;;;;3.11;47.68;100669.64;107864;1239;61713;-92
2023/03/05 08:35:24;;;;;;;7.40;3.10;;;;;;;3.17;48.19;100672.83;107778;1238;71267;-83
2023/03/05 08:37:53;;;;;;;5.30;2.70;;;;;;;3.21;49.78;100671.13;107865;1239;71420;-87
2023/03/05 08:40:23;;;;;;;5.10;3.00;;;;;;;3.21;49.43;100670.07;108065;1238;60453;-85
2023/03/05 08:42:52;;;;;;;5.30;2.40;;;;;;;3.32;51.69;100672.35;107751;1243;71877;-80
2023/03/05 08:45:22;;;;;;;7.50;2.60;;;;;;;3.27;50.11;100674.14;108076;1238;59324;-85
2023/03/05 08:47:51;;;;;;;5.30;2.50;;;;;;;3.36;52.19;100672.70;107818;1241;60397;-81
2023/03/05 08:50:22;;;;;;;6.50;3.00;;;;;;;3.38;50.36;100678.48;107973;1242;73573;-81
2023/03/05 08:52:52;;;;;;;4.00;2.00;;;;;;;3.38;50.41;100676.59;107944;1242;63111;-80
2023/03/05 08:55:21;;;;;;;5.30;2.60;;;;;;;3.28;47.34;100672.90;107793;1239;67360;-82
2023/03/05 08:57:50;;;;;;;4.20;2.10;;;;;;;3.39;48.42;100672.90;107872;1249;71969;-90
2023/03/05 09:00:19;;;;;;;5.60;2.30;;;;;;;3.47;48.84;100669.81;107881;1238;58880;-83
2023/03/05 09:02:48;;;;;;;5.40;2.40;;;;;;;3.44;46.60;100667.71;107676;1241;58895;-83
2023/03/05 09:05:18;;;;;;;8.00;2.90;;;;;;;3.59;47.05;100665.31;107806;1249;62216;-85
2023/03/05 09:07:47;;;;;;;5.50;2.30;;;;;;;3.35;47.65;100668.79;107992;1237;71868;-86
2023/03/05 09:10:17;;;;;;;5.10;2.70;;;;;;;3.32;47.90;100661.67;108001;1239;60692;-78
2023/03/05 09:12:48;;;;;;;7.60;3.20;;;;;;;3.35;48.07;100659.99;107863;1239;72927;-79
2023/03/05 09:15:17;;;;;;;6.70;2.90;;;;;;;3.30;47.13;100659.20;107845;1238;59517;-84
2023/03/05 09:17:46;;;;;;;6.20;3.50;;;;;;;3.36;46.54;100653.23;107799;1238;61731;-77
2023/03/05 09:20:15;;;;;;;5.80;2.40;;;;;;;3.49;47.31;100650.48;107764;1246;73978;-82
2023/03/05 09:22:44;;;;;;;3.30;1.60;;;;;;;3.56;47.59;100654.98;107830;1238;70952;-81
2023/03/05 09:25:13;;;;;;;5.30;2.40;;;;;;;3.53;47.22;100656.98;107812;1239;68634;-81
2023/03/05 09:27:44;;;;;;;4.30;2.20;;;;;;;3.43;46.66;100657.40;107722;1239;62494;-84
2023/03/05 09:30:14;;;;;;;4.80;2.40;;;;;;;3.32;46.26;100651.34;107927;1249;57561;-87
2023/03/05 09:32:42;;;;;;;3.30;2.10;;;;;;;3.32;46.91;100640.48;107899;1241;61718;-83
2023/03/05 09:35:11;;;;;;;4.70;2.20;;;;;;;3.30;45.61;100648.20;108149;1244;73357;-84
2023/03/05 09:37:41;;;;;;;5.30;2.50;;;;;;;3.40;46.34;100653.56;108085;1239;72590;-81
2023/03/05 09:40:16;;;;;;;7.60;2.90;;;;;;;3.41;46.52;100647.69;108027;1240;69151;-85
2023/03/05 09:43:14;;;;;;;6.30;2.20;;;;;;;3.36;46.60;100649.48;108124;1241;62484;-77
2023/03/05 09:45:50;;;;;;;3.80;2.00;;;;;;;3.43;46.49;100649.71;108172;1239;58857;-84
2023/03/05 09:48:38;;;;;;;4.10;2.00;;;;;;;3.44;44.80;100646.21;108264;1239;59016;-85
2023/03/05 09:51:17;;;;;;;12.90;4.60;;;;;;;3.42;44.09;100640.27;108278;1236;73486;-89
2023/03/05 09:54:09;;;;;;;7.30;2.60;;;;;;;3.35;43.90;100644.17;108117;1237;72608;-85
2023/03/05 09:56:55;;;;;;;5.70;1.90;;;;;;;3.25;43.26;100636.35;108183;1239;71011;-82
2023/03/05 09:59:46;;;;;;;3.60;2.00;;;;;;;3.30;44.16;100640.95;108249;1239;74288;-89
2023/03/05 10:02:42;;;;;;;4.00;1.80;;;;;;;3.20;43.78;100640.86;108305;1245;58535;-83
2023/03/05 10:05:42;;;;;;;3.90;2.00;;;;;;;3.18;43.85;100641.46;108187;1240;59483;-87
2023/03/05 10:08:15;;;;;;;11.40;3.90;;;;;;;3.04;44.21;100634.83;108179;1239;73595;-86
2023/03/05 10:10:51;;;;;;;6.90;2.40;;;;;;;3.11;44.20;100635.55;108121;1239;61793;-83
2023/03/05 10:13:38;;;;;;;10.50;2.20;;;;;;;3.16;43.94;100628.14;108018;1246;68605;-79
2023/03/05 10:16:38;;;;;;;4.70;2.00;;;;;;;3.24;45.04;100630.88;108026;1238;73983;-81
2023/03/05 10:19:39;;;;;;;5.30;2.20;;;;;;;3.32;44.88;100622.96;108070;1238;61224;-85
2023/03/05 10:22:18;;;;;;;5.70;2.50;;;;;;;3.35;44.26;100615.59;108192;1237;59153;-84
2023/03/05 10:25:31;;;;;;;5.60;2.30;;;;;;;3.36;44.65;100613.45;107997;1238;62961;-83
2023/03/05 10:28:52;;;;;;;5.60;2.00;;;;;;;3.45;44.65;100617.58;108004;1239;71458;-84
2023/03/05 10:31:57;;;;;;;3.40;1.90;;;;;;;3.43;44.59;100618.32;107985;1244;69312;-82
2023/03/05 10:34:52;;;;;;;4.70;2.30;;;;;;;3.27;44.26;100611.98;107849;1244;73971;-84
2023/03/05 10:37:42;;;;;;;4.40;1.70;;;;;;;3.27;44.04;100609.95;107958;1248;58296;-79
2023/03/05 10:40:51;;;;;;;4.70;2.30;;;;;;;3.23;44.18;100605.29;108060;1245;60910;-82
2023/03/05 10:43:36;;;;;;;4.70;2.10;;;;;;;3.20;43.61;100607.27;107741;1249;72157;-83
2023/03/05 10:46:17;;;;;;;5.10;2.20;;;;;;;3.15;44.27;100608.55;107889;1236;70306;-85
2023/03/05 14:12:03;;;;;;;10.00;5.10;;;;;;;3.29;47.10;100408.08;105223;1280;600604;-85
2023/03/05 14:14:37;;;;;;;11.80;5.40;;;;;;;3.27;47.64;100406.32;108750;1248;57643;-87
2023/03/05 14:17:29;;;;;;;6.60;4.00;;;;;;;3.29;47.58;100404.83;108386;1247;61516;-87
2023/03/05 14:20:09;;;;;;;10.90;5.50;;;;;;;3.37;47.46;100401.86;107750;1248;71031;-85
2023/03/05 14:22:46;;;;;;;14.30;6.20;;;;;;;3.40;47.76;100396.04;107211;1261;72488;-86
2023/03/05 14:25:33;;;;;;;18.60;7.00;;;;;;;3.44;47.45;100396.36;106841;1252;287283;-85
2023/03/05 14:28:26;;;;;;;13.50;6.20;;;;;;;3.49;47.42;100391.67;107213;1247;64676;-82
2023/03/05 14:30:56;;;;;;;14.50;6.70;;;;;;;3.53;47.51;100389.25;107114;1248;60569;-82
2023/03/05 14:33:32;;;;;;;14.10;8.10;;;;;;;3.55;47.39;100386.38;106996;1248;57426;-75
2023/03/05 14:43:59;;;;;;;11.10;6.20;;;;;;;3.70;46.95;100374.77;104037;1280;602360;-77
2023/03/05 14:46:28;;;;;;;18.30;7.20;;;;;;;3.66;46.75;100370.83;106513;1258;59054;-84
2023/03/05 14:48:57;;;;;;;14.90;6.50;;;;;;;3.66;46.95;100371.38;106749;1254;59087;-85
2023/03/05 14:51:27;;;;;;;17.10;6.60;;;;;;;3.69;46.84;100373.46;106753;1254;71024;-84
2023/03/05 14:53:57;;;;;;;12.80;6.40;;;;;;;3.65;46.57;100369.52;107119;1251;72840;-85
2023/03/05 14:56:27;;;;;;;16.90;7.20;;;;;;;3.65;46.60;100367.80;106758;1250;386012;-79
2023/03/05 14:58:57;;;;;;;16.20;6.90;;;;;;;3.58;46.75;100361.79;107132;1251;74618;-83
2023/03/05 15:01:26;;;;;;;15.00;6.10;;;;;;;3.55;47.17;100360.91;107009;1251;58568;-83
2023/03/05 15:03:56;;;;;;;17.90;6.80;;;;;;;3.52;47.33;100362.79;107188;1247;58013;-85
2023/03/05 15:06:38;;;;;;;16.20;6.60;;;;;;;3.61;47.38;100364.06;107148;1252;71068;-81
2023/03/05 15:09:07;;;;;;;14.10;6.60;;;;;;;3.65;47.40;100360.39;107098;1254;71980;-81